sensor_id;sensor_type;location;lat;lon;timestamp;P1;durP1;ratioP1;P2;durP2;ratioP2
76896;SDS011;65856;52.178;21.176;2023-04-03T00:00:47;5.20;;;1.40;;
76896;SDS011;65856;52.178;21.176;2023-04-03T00:03:16;4.30;;;1.70;;
76896;SDS011;65856;52.178;21.176;2023-04-03T00:05:44;8.50;;;2.30;;
76896;SDS011;65856;52.178;21.176;2023-04-03T00:08:13;5.50;;;1.80;;
76896;SDS011;65856;52.178;21.176;2023-04-03T00:10:41;4.80;;;1.70;;
76896;SDS011;65856;52.178;21.176;2023-04-03T00:13:09;9.10;;;3.00;;
76896;SDS011;65856;52.178;21.176;2023-04-03T00:15:38;6.70;;;2.30;;
76896;SDS011;65856;52.178;21.176;2023-04-03T00:18:07;7.10;;;2.40;;
76896;SDS011;65856;52.178;21.176;2023-04-03T00:20:35;6.60;;;1.90;;
76896;SDS011;65856;52.178;21.176;2023-04-03T00:23:03;4.60;;;1.90;;
76896;SDS011;65856;52.178;21.176;2023-04-03T00:25:31;6.80;;;2.00;;
76896;SDS011;65856;52.178;21.176;2023-04-03T00:27:59;5.70;;;1.40;;
76896;SDS011;65856;52.178;21.176;2023-04-03T00:30:28;3.40;;;1.10;;
76896;SDS011;65856;52.178;21.176;2023-04-03T00:32:56;1.90;;;1.00;;
76896;SDS011;65856;52.178;21.176;2023-04-03T00:35:24;3.70;;;1.00;;
76896;SDS011;65856;52.178;21.176;2023-04-03T00:37:53;2.60;;;1.00;;
76896;SDS011;65856;52.178;21.176;2023-04-03T00:40:24;4.20;;;1.50;;
76896;SDS011;65856;52.178;21.176;2023-04-03T00:42:57;2.60;;;1.10;;
76896;SDS011;65856;52.178;21.176;2023-04-03T00:45:35;5.00;;;1.20;;
76896;SDS011;65856;52.178;21.176;2023-04-03T00:48:07;3.20;;;1.20;;
76896;SDS011;65856;52.178;21.176;2023-04-03T00:50:40;2.90;;;1.00;;
76896;SDS011;65856;52.178;21.176;2023-04-03T00:53:13;3.30;;;1.30;;
76896;SDS011;65856;52.178;21.176;2023-04-03T00:55:43;3.60;;;1.20;;
76896;SDS011;65856;52.178;21.176;2023-04-03T00:58:15;3.00;;;1.10;;
76896;SDS011;65856;52.178;21.176;2023-04-03T01:00:52;2.40;;;1.00;;
76896;SDS011;65856;52.178;21.176;2023-04-03T01:03:24;2.50;;;1.00;;
76896;SDS011;65856;52.178;21.176;2023-04-03T01:05:52;1.90;;;0.90;;
76896;SDS011;65856;52.178;21.176;2023-04-03T01:08:20;5.30;;;1.40;;
76896;SDS011;65856;52.178;21.176;2023-04-03T01:10:48;3.60;;;1.40;;
76896;SDS011;65856;52.178;21.176;2023-04-03T01:13:24;2.70;;;1.20;;
76896;SDS011;65856;52.178;21.176;2023-04-03T01:15:54;2.30;;;0.90;;
76896;SDS011;65856;52.178;21.176;2023-04-03T01:18:23;3.90;;;1.20;;
76896;SDS011;65856;52.178;21.176;2023-04-03T01:21:15;2.80;;;1.20;;
76896;SDS011;65856;52.178;21.176;2023-04-03T01:24:09;2.30;;;1.00;;
76896;SDS011;65856;52.178;21.176;2023-04-03T01:26:48;1.60;;;0.90;;
76896;SDS011;65856;52.178;21.176;2023-04-03T01:29:17;4.20;;;1.30;;
76896;SDS011;65856;52.178;21.176;2023-04-03T01:31:54;2.80;;;1.20;;
76896;SDS011;65856;52.178;21.176;2023-04-03T01:34:24;2.20;;;1.00;;
76896;SDS011;65856;52.178;21.176;2023-04-03T01:36:52;3.00;;;1.00;;
76896;SDS011;65856;52.178;21.176;2023-04-03T01:39:21;2.30;;;1.10;;
76896;SDS011;65856;52.178;21.176;2023-04-03T01:41:50;2.70;;;1.00;;
76896;SDS011;65856;52.178;21.176;2023-04-03T01:44:18;2.20;;;1.00;;
76896;SDS011;65856;52.178;21.176;2023-04-03T01:46:46;2.30;;;0.80;;
76896;SDS011;65856;52.178;21.176;2023-04-03T01:49:14;2.50;;;1.00;;
76896;SDS011;65856;52.178;21.176;2023-04-03T01:51:42;1.90;;;0.90;;
76896;SDS011;65856;52.178;21.176;2023-04-03T01:54:10;2.40;;;0.90;;
76896;SDS011;65856;52.178;21.176;2023-04-03T01:56:38;2.80;;;1.00;;
76896;SDS011;65856;52.178;21.176;2023-04-03T01:59:06;2.20;;;1.00;;
76896;SDS011;65856;52.178;21.176;2023-04-03T02:01:34;3.10;;;1.10;;
76896;SDS011;65856;52.178;21.176;2023-04-03T02:04:01;2.10;;;0.80;;
76896;SDS011;65856;52.178;21.176;2023-04-03T02:06:29;2.30;;;1.00;;
76896;SDS011;65856;52.178;21.176;2023-04-03T02:08:57;1.70;;;0.90;;
76896;SDS011;65856;52.178;21.176;2023-04-03T02:11:25;2.80;;;1.00;;
76896;SDS011;65856;52.178;21.176;2023-04-03T02:13:53;3.10;;;0.90;;
76896;SDS011;65856;52.178;21.176;2023-04-03T02:16:21;2.30;;;0.90;;
76896;SDS011;65856;52.178;21.176;2023-04-03T02:18:49;3.20;;;0.90;;
76896;SDS011;65856;52.178;21.176;2023-04-03T02:21:16;1.30;;;0.70;;
76896;SDS011;65856;52.178;21.176;2023-04-03T02:23:44;1.30;;;0.80;;
76896;SDS011;65856;52.178;21.176;2023-04-03T02:26:14;2.40;;;1.00;;
76896;SDS011;65856;52.178;21.176;2023-04-03T02:28:43;1.90;;;0.90;;
76896;SDS011;65856;52.178;21.176;2023-04-03T02:31:11;2.00;;;0.90;;
76896;SDS011;65856;52.178;21.176;2023-04-03T02:33:39;3.50;;;1.00;;
76896;SDS011;65856;52.178;21.176;2023-04-03T02:36:08;3.70;;;1.10;;
76896;SDS011;65856;52.178;21.176;2023-04-03T02:38:36;1.50;;;0.90;;
76896;SDS011;65856;52.178;21.176;2023-04-03T02:41:06;2.70;;;0.90;;
76896;SDS011;65856;52.178;21.176;2023-04-03T02:43:36;2.20;;;0.90;;
76896;SDS011;65856;52.178;21.176;2023-04-03T02:46:05;2.00;;;0.90;;
76896;SDS011;65856;52.178;21.176;2023-04-03T02:48:33;2.70;;;0.80;;
76896;SDS011;65856;52.178;21.176;2023-04-03T02:51:01;3.50;;;0.90;;
76896;SDS011;65856;52.178;21.176;2023-04-03T02:53:29;1.60;;;1.00;;
76896;SDS011;65856;52.178;21.176;2023-04-03T02:55:57;2.70;;;0.80;;
76896;SDS011;65856;52.178;21.176;2023-04-03T02:58:25;3.20;;;1.00;;
76896;SDS011;65856;52.178;21.176;2023-04-03T03:00:54;1.90;;;1.00;;
76896;SDS011;65856;52.178;21.176;2023-04-03T03:03:21;2.30;;;1.00;;
76896;SDS011;65856;52.178;21.176;2023-04-03T03:05:49;3.30;;;1.00;;
76896;SDS011;65856;52.178;21.176;2023-04-03T03:08:27;2.50;;;1.00;;
76896;SDS011;65856;52.178;21.176;2023-04-03T03:10:55;3.50;;;0.80;;
76896;SDS011;65856;52.178;21.176;2023-04-03T03:13:23;1.40;;;0.70;;
76896;SDS011;65856;52.178;21.176;2023-04-03T03:15:51;3.50;;;1.00;;
76896;SDS011;65856;52.178;21.176;2023-04-03T03:18:19;3.00;;;0.80;;
76896;SDS011;65856;52.178;21.176;2023-04-03T03:20:51;2.40;;;1.00;;
76896;SDS011;65856;52.178;21.176;2023-04-03T03:23:19;2.40;;;0.90;;
76896;SDS011;65856;52.178;21.176;2023-04-03T03:25:48;3.30;;;0.90;;
76896;SDS011;65856;52.178;21.176;2023-04-03T03:28:15;2.10;;;1.00;;
76896;SDS011;65856;52.178;21.176;2023-04-03T03:30:43;3.30;;;0.90;;
76896;SDS011;65856;52.178;21.176;2023-04-03T03:33:11;1.80;;;1.00;;
76896;SDS011;65856;52.178;21.176;2023-04-03T03:35:39;4.10;;;0.90;;
76896;SDS011;65856;52.178;21.176;2023-04-03T03:38:08;1.90;;;0.70;;
76896;SDS011;65856;52.178;21.176;2023-04-03T03:40:36;3.80;;;1.00;;
76896;SDS011;65856;52.178;21.176;2023-04-03T03:43:04;3.30;;;1.00;;
76896;SDS011;65856;52.178;21.176;2023-04-03T03:45:31;3.10;;;1.00;;
76896;SDS011;65856;52.178;21.176;2023-04-03T03:48:00;4.60;;;1.00;;
76896;SDS011;65856;52.178;21.176;2023-04-03T03:50:28;2.60;;;0.90;;
76896;SDS011;65856;52.178;21.176;2023-04-03T03:52:55;1.60;;;0.70;;
76896;SDS011;65856;52.178;21.176;2023-04-03T03:55:23;3.50;;;1.00;;
76896;SDS011;65856;52.178;21.176;2023-04-03T03:57:51;2.10;;;1.10;;
76896;SDS011;65856;52.178;21.176;2023-04-03T04:00:20;3.30;;;1.00;;
76896;SDS011;65856;52.178;21.176;2023-04-03T04:02:48;3.20;;;0.90;;
76896;SDS011;65856;52.178;21.176;2023-04-03T04:05:16;2.20;;;1.00;;
76896;SDS011;65856;52.178;21.176;2023-04-03T04:07:44;2.20;;;1.00;;
76896;SDS011;65856;52.178;21.176;2023-04-03T04:10:12;1.50;;;0.70;;
76896;SDS011;65856;52.178;21.176;2023-04-03T04:12:40;2.40;;;0.80;;
76896;SDS011;65856;52.178;21.176;2023-04-03T04:15:10;2.90;;;1.20;;
76896;SDS011;65856;52.178;21.176;2023-04-03T04:17:38;1.70;;;0.70;;
76896;SDS011;65856;52.178;21.176;2023-04-03T04:20:07;6.30;;;0.90;;
76896;SDS011;65856;52.178;21.176;2023-04-03T04:22:36;2.20;;;1.10;;
76896;SDS011;65856;52.178;21.176;2023-04-03T04:25:05;2.80;;;1.00;;
76896;SDS011;65856;52.178;21.176;2023-04-03T04:27:33;2.60;;;0.70;;
76896;SDS011;65856;52.178;21.176;2023-04-03T04:30:01;2.10;;;0.80;;
76896;SDS011;65856;52.178;21.176;2023-04-03T04:32:29;1.80;;;0.90;;
76896;SDS011;65856;52.178;21.176;2023-04-03T04:34:57;1.90;;;0.90;;
76896;SDS011;65856;52.178;21.176;2023-04-03T04:37:25;2.20;;;0.90;;
76896;SDS011;65856;52.178;21.176;2023-04-03T04:39:53;2.00;;;0.80;;
76896;SDS011;65856;52.178;21.176;2023-04-03T04:42:21;2.50;;;0.80;;
76896;SDS011;65856;52.178;21.176;2023-04-03T04:44:49;1.40;;;0.80;;
76896;SDS011;65856;52.178;21.176;2023-04-03T04:47:18;4.30;;;1.00;;
76896;SDS011;65856;52.178;21.176;2023-04-03T04:49:45;2.90;;;0.90;;
76896;SDS011;65856;52.178;21.176;2023-04-03T04:52:14;2.00;;;1.10;;
76896;SDS011;65856;52.178;21.176;2023-04-03T04:54:42;4.50;;;0.90;;
76896;SDS011;65856;52.178;21.176;2023-04-03T04:57:10;4.00;;;1.20;;
76896;SDS011;65856;52.178;21.176;2023-04-03T04:59:37;1.70;;;1.00;;
76896;SDS011;65856;52.178;21.176;2023-04-03T05:02:05;2.90;;;0.90;;
76896;SDS011;65856;52.178;21.176;2023-04-03T05:04:33;2.20;;;1.10;;
76896;SDS011;65856;52.178;21.176;2023-04-03T05:07:01;3.50;;;1.00;;
76896;SDS011;65856;52.178;21.176;2023-04-03T05:09:29;3.10;;;0.90;;
76896;SDS011;65856;52.178;21.176;2023-04-03T05:11:57;3.10;;;0.90;;
76896;SDS011;65856;52.178;21.176;2023-04-03T05:14:25;2.70;;;1.10;;
76896;SDS011;65856;52.178;21.176;2023-04-03T05:16:53;3.30;;;1.20;;
76896;SDS011;65856;52.178;21.176;2023-04-03T05:19:21;2.20;;;1.00;;
76896;SDS011;65856;52.178;21.176;2023-04-03T05:21:49;3.80;;;1.00;;
76896;SDS011;65856;52.178;21.176;2023-04-03T05:24:17;1.50;;;0.90;;
76896;SDS011;65856;52.178;21.176;2023-04-03T05:26:45;2.00;;;1.00;;
76896;SDS011;65856;52.178;21.176;2023-04-03T05:29:13;1.70;;;1.20;;
76896;SDS011;65856;52.178;21.176;2023-04-03T05:31:40;3.60;;;1.10;;
76896;SDS011;65856;52.178;21.176;2023-04-03T05:34:08;2.40;;;0.90;;
76896;SDS011;65856;52.178;21.176;2023-04-03T05:36:36;2.90;;;1.00;;
76896;SDS011;65856;52.178;21.176;2023-04-03T05:39:04;2.10;;;1.30;;
76896;SDS011;65856;52.178;21.176;2023-04-03T05:41:32;4.00;;;1.20;;
76896;SDS011;65856;52.178;21.176;2023-04-03T05:44:00;5.80;;;2.00;;
76896;SDS011;65856;52.178;21.176;2023-04-03T05:46:28;2.80;;;1.20;;
76896;SDS011;65856;52.178;21.176;2023-04-03T05:48:56;3.90;;;1.30;;
76896;SDS011;65856;52.178;21.176;2023-04-03T05:51:27;2.90;;;1.20;;
76896;SDS011;65856;52.178;21.176;2023-04-03T05:54:03;4.00;;;1.30;;
76896;SDS011;65856;52.178;21.176;2023-04-03T05:56:36;2.50;;;1.30;;
76896;SDS011;65856;52.178;21.176;2023-04-03T05:59:04;2.70;;;0.90;;
76896;SDS011;65856;52.178;21.176;2023-04-03T06:01:33;3.10;;;1.20;;
76896;SDS011;65856;52.178;21.176;2023-04-03T06:04:01;2.50;;;1.00;;
76896;SDS011;65856;52.178;21.176;2023-04-03T06:06:44;2.70;;;0.90;;
76896;SDS011;65856;52.178;21.176;2023-04-03T06:09:14;4.80;;;1.30;;
76896;SDS011;65856;52.178;21.176;2023-04-03T06:11:43;2.40;;;1.20;;
76896;SDS011;65856;52.178;21.176;2023-04-03T06:14:11;2.70;;;1.10;;
76896;SDS011;65856;52.178;21.176;2023-04-03T06:16:40;1.30;;;0.80;;
76896;SDS011;65856;52.178;21.176;2023-04-03T06:19:08;2.80;;;1.00;;
76896;SDS011;65856;52.178;21.176;2023-04-03T06:21:38;3.30;;;1.20;;
76896;SDS011;65856;52.178;21.176;2023-04-03T06:24:06;2.80;;;1.00;;
76896;SDS011;65856;52.178;21.176;2023-04-03T06:26:35;3.10;;;1.40;;
76896;SDS011;65856;52.178;21.176;2023-04-03T06:29:02;3.00;;;1.20;;
76896;SDS011;65856;52.178;21.176;2023-04-03T06:31:30;3.90;;;1.30;;
76896;SDS011;65856;52.178;21.176;2023-04-03T06:33:58;2.30;;;1.10;;
76896;SDS011;65856;52.178;21.176;2023-04-03T06:36:26;3.70;;;1.20;;
76896;SDS011;65856;52.178;21.176;2023-04-03T06:38:55;2.10;;;1.10;;
76896;SDS011;65856;52.178;21.176;2023-04-03T06:41:23;4.50;;;1.20;;
76896;SDS011;65856;52.178;21.176;2023-04-03T06:43:52;2.10;;;1.10;;
76896;SDS011;65856;52.178;21.176;2023-04-03T06:46:23;3.20;;;1.30;;
76896;SDS011;65856;52.178;21.176;2023-04-03T06:48:53;2.20;;;1.20;;
76896;SDS011;65856;52.178;21.176;2023-04-03T06:51:23;2.20;;;1.10;;
76896;SDS011;65856;52.178;21.176;2023-04-03T06:53:53;3.90;;;1.40;;
76896;SDS011;65856;52.178;21.176;2023-04-03T06:56:22;3.20;;;1.20;;
76896;SDS011;65856;52.178;21.176;2023-04-03T06:58:52;3.40;;;1.30;;
76896;SDS011;65856;52.178;21.176;2023-04-03T07:01:21;3.70;;;1.00;;
76896;SDS011;65856;52.178;21.176;2023-04-03T07:03:49;2.60;;;1.30;;
76896;SDS011;65856;52.178;21.176;2023-04-03T07:06:18;2.30;;;1.10;;
76896;SDS011;65856;52.178;21.176;2023-04-03T07:08:47;3.80;;;1.40;;
76896;SDS011;65856;52.178;21.176;2023-04-03T07:11:17;2.50;;;1.30;;
76896;SDS011;65856;52.178;21.176;2023-04-03T07:13:44;3.10;;;1.10;;
76896;SDS011;65856;52.178;21.176;2023-04-03T07:16:12;2.30;;;1.30;;
76896;SDS011;65856;52.178;21.176;2023-04-03T07:18:41;3.80;;;1.50;;
76896;SDS011;65856;52.178;21.176;2023-04-03T07:21:09;2.50;;;1.20;;
76896;SDS011;65856;52.178;21.176;2023-04-03T07:23:37;4.10;;;1.50;;
76896;SDS011;65856;52.178;21.176;2023-04-03T07:26:06;2.30;;;1.20;;
76896;SDS011;65856;52.178;21.176;2023-04-03T07:28:34;2.70;;;1.40;;
76896;SDS011;65856;52.178;21.176;2023-04-03T07:31:04;3.80;;;1.30;;
76896;SDS011;65856;52.178;21.176;2023-04-03T07:36:04;3.50;;;1.30;;
76896;SDS011;65856;52.178;21.176;2023-04-03T07:38:34;3.90;;;1.10;;
76896;SDS011;65856;52.178;21.176;2023-04-03T07:41:03;2.40;;;1.20;;
76896;SDS011;65856;52.178;21.176;2023-04-03T07:43:32;2.00;;;1.10;;
76896;SDS011;65856;52.178;21.176;2023-04-03T07:46:00;1.60;;;1.10;;
76896;SDS011;65856;52.178;21.176;2023-04-03T07:48:31;2.90;;;1.00;;
76896;SDS011;65856;52.178;21.176;2023-04-03T07:51:00;2.40;;;1.10;;
76896;SDS011;65856;52.178;21.176;2023-04-03T07:53:29;2.30;;;1.10;;
76896;SDS011;65856;52.178;21.176;2023-04-03T07:55:58;2.40;;;1.10;;
76896;SDS011;65856;52.178;21.176;2023-04-03T07:58:26;4.40;;;1.10;;
76896;SDS011;65856;52.178;21.176;2023-04-03T08:00:54;1.90;;;0.90;;
76896;SDS011;65856;52.178;21.176;2023-04-03T08:03:22;1.70;;;0.90;;
76896;SDS011;65856;52.178;21.176;2023-04-03T08:05:50;2.60;;;1.20;;
76896;SDS011;65856;52.178;21.176;2023-04-03T08:08:21;2.10;;;1.10;;
76896;SDS011;65856;52.178;21.176;2023-04-03T08:10:51;3.00;;;1.10;;
76896;SDS011;65856;52.178;21.176;2023-04-03T08:13:21;2.30;;;1.20;;
76896;SDS011;65856;52.178;21.176;2023-04-03T08:15:49;2.40;;;1.00;;
76896;SDS011;65856;52.178;21.176;2023-04-03T08:18:18;2.00;;;1.10;;
76896;SDS011;65856;52.178;21.176;2023-04-03T08:20:48;3.70;;;0.90;;
76896;SDS011;65856;52.178;21.176;2023-04-03T08:23:16;2.60;;;1.10;;
76896;SDS011;65856;52.178;21.176;2023-04-03T08:25:44;3.70;;;1.20;;
76896;SDS011;65856;52.178;21.176;2023-04-03T08:28:12;1.30;;;0.80;;
76896;SDS011;65856;52.178;21.176;2023-04-03T08:30:41;1.90;;;0.90;;
76896;SDS011;65856;52.178;21.176;2023-04-03T08:33:10;2.40;;;1.20;;
76896;SDS011;65856;52.178;21.176;2023-04-03T08:35:41;3.20;;;1.00;;
76896;SDS011;65856;52.178;21.176;2023-04-03T08:38:10;3.00;;;1.30;;
76896;SDS011;65856;52.178;21.176;2023-04-03T08:40:38;2.70;;;1.00;;
76896;SDS011;65856;52.178;21.176;2023-04-03T08:43:24;1.70;;;0.80;;
76896;SDS011;65856;52.178;21.176;2023-04-03T08:46:03;3.20;;;1.00;;
76896;SDS011;65856;52.178;21.176;2023-04-03T08:48:38;1.50;;;1.00;;
76896;SDS011;65856;52.178;21.176;2023-04-03T08:51:13;2.60;;;1.20;;
76896;SDS011;65856;52.178;21.176;2023-04-03T08:53:49;1.70;;;1.10;;
76896;SDS011;65856;52.178;21.176;2023-04-03T08:56:24;2.10;;;0.90;;
76896;SDS011;65856;52.178;21.176;2023-04-03T08:58:56;2.80;;;1.10;;
76896;SDS011;65856;52.178;21.176;2023-04-03T09:01:33;2.70;;;1.10;;
76896;SDS011;65856;52.178;21.176;2023-04-03T09:04:08;2.10;;;1.00;;
76896;SDS011;65856;52.178;21.176;2023-04-03T09:06:39;3.90;;;1.10;;
76896;SDS011;65856;52.178;21.176;2023-04-03T09:09:13;1.60;;;1.00;;
76896;SDS011;65856;52.178;21.176;2023-04-03T09:11:58;2.80;;;1.10;;
76896;SDS011;65856;52.178;21.176;2023-04-03T09:14:39;2.00;;;1.10;;
76896;SDS011;65856;52.178;21.176;2023-04-03T09:17:15;5.70;;;1.30;;
76896;SDS011;65856;52.178;21.176;2023-04-03T09:19:58;1.90;;;1.10;;
76896;SDS011;65856;52.178;21.176;2023-04-03T09:22:40;2.50;;;1.10;;
76896;SDS011;65856;52.178;21.176;2023-04-03T09:25:13;2.30;;;1.20;;
76896;SDS011;65856;52.178;21.176;2023-04-03T09:27:44;2.40;;;1.10;;
76896;SDS011;65856;52.178;21.176;2023-04-03T09:30:15;2.60;;;1.10;;
76896;SDS011;65856;52.178;21.176;2023-04-03T09:32:46;2.30;;;1.00;;
76896;SDS011;65856;52.178;21.176;2023-04-03T09:35:22;1.80;;;1.00;;
76896;SDS011;65856;52.178;21.176;2023-04-03T09:37:53;2.60;;;1.00;;
76896;SDS011;65856;52.178;21.176;2023-04-03T09:40:33;2.50;;;1.10;;
76896;SDS011;65856;52.178;21.176;2023-04-03T09:43:24;2.60;;;1.10;;
76896;SDS011;65856;52.178;21.176;2023-04-03T09:45:54;2.10;;;1.10;;
76896;SDS011;65856;52.178;21.176;2023-04-03T09:48:24;2.10;;;1.20;;
76896;SDS011;65856;52.178;21.176;2023-04-03T09:50:59;1.80;;;1.00;;
76896;SDS011;65856;52.178;21.176;2023-04-03T09:53:37;1.50;;;0.90;;
76896;SDS011;65856;52.178;21.176;2023-04-03T09:56:21;2.40;;;1.10;;
76896;SDS011;65856;52.178;21.176;2023-04-03T09:59:05;1.60;;;0.90;;
76896;SDS011;65856;52.178;21.176;2023-04-03T10:01:42;1.50;;;0.90;;
76896;SDS011;65856;52.178;21.176;2023-04-03T10:04:23;1.50;;;0.90;;
76896;SDS011;65856;52.178;21.176;2023-04-03T10:06:54;2.30;;;1.20;;
76896;SDS011;65856;52.178;21.176;2023-04-03T10:09:25;2.30;;;1.00;;
76896;SDS011;65856;52.178;21.176;2023-04-03T10:12:03;1.60;;;0.80;;
76896;SDS011;65856;52.178;21.176;2023-04-03T10:14:34;2.30;;;1.00;;
76896;SDS011;65856;52.178;21.176;2023-04-03T10:17:15;1.40;;;1.20;;
76896;SDS011;65856;52.178;21.176;2023-04-03T10:19:52;2.40;;;0.90;;
76896;SDS011;65856;52.178;21.176;2023-04-03T10:22:31;3.40;;;1.10;;
76896;SDS011;65856;52.178;21.176;2023-04-03T10:25:12;2.20;;;0.90;;
76896;SDS011;65856;52.178;21.176;2023-04-03T10:27:54;2.20;;;1.00;;
76896;SDS011;65856;52.178;21.176;2023-04-03T10:30:39;2.00;;;0.90;;
76896;SDS011;65856;52.178;21.176;2023-04-03T10:33:22;2.20;;;1.00;;
76896;SDS011;65856;52.178;21.176;2023-04-03T10:36:09;2.10;;;1.00;;
76896;SDS011;65856;52.178;21.176;2023-04-03T10:38:51;3.10;;;1.20;;
76896;SDS011;65856;52.178;21.176;2023-04-03T10:41:36;2.80;;;1.10;;
76896;SDS011;65856;52.178;21.176;2023-04-03T10:44:17;1.30;;;0.80;;
76896;SDS011;65856;52.178;21.176;2023-04-03T10:46:58;1.90;;;0.90;;
76896;SDS011;65856;52.178;21.176;2023-04-03T10:49:45;1.50;;;0.90;;
76896;SDS011;65856;52.178;21.176;2023-04-03T10:52:26;2.00;;;1.00;;
76896;SDS011;65856;52.178;21.176;2023-04-03T10:55:04;1.70;;;1.00;;
76896;SDS011;65856;52.178;21.176;2023-04-03T10:57:42;2.60;;;1.00;;
76896;SDS011;65856;52.178;21.176;2023-04-03T11:00:17;2.70;;;1.40;;
76896;SDS011;65856;52.178;21.176;2023-04-03T11:02:52;1.50;;;1.00;;
76896;SDS011;65856;52.178;21.176;2023-04-03T11:05:28;2.90;;;1.00;;
76896;SDS011;65856;52.178;21.176;2023-04-03T11:08:05;1.70;;;0.90;;
76896;SDS011;65856;52.178;21.176;2023-04-03T11:10:42;2.50;;;0.80;;
76896;SDS011;65856;52.178;21.176;2023-04-03T11:13:15;1.50;;;0.90;;
76896;SDS011;65856;52.178;21.176;2023-04-03T11:15:46;2.40;;;0.90;;
76896;SDS011;65856;52.178;21.176;2023-04-03T11:18:17;2.50;;;1.00;;
76896;SDS011;65856;52.178;21.176;2023-04-03T11:20:53;2.00;;;0.90;;
76896;SDS011;65856;52.178;21.176;2023-04-03T11:23:30;2.30;;;0.90;;
76896;SDS011;65856;52.178;21.176;2023-04-03T11:26:10;1.80;;;1.00;;
76896;SDS011;65856;52.178;21.176;2023-04-03T11:28:39;1.40;;;1.00;;
76896;SDS011;65856;52.178;21.176;2023-04-03T11:31:15;1.60;;;0.90;;
76896;SDS011;65856;52.178;21.176;2023-04-03T11:33:58;3.80;;;1.20;;
76896;SDS011;65856;52.178;21.176;2023-04-03T11:36:40;1.60;;;0.80;;
76896;SDS011;65856;52.178;21.176;2023-04-03T11:39:20;1.30;;;0.80;;
76896;SDS011;65856;52.178;21.176;2023-04-03T11:41:52;3.00;;;1.00;;
76896;SDS011;65856;52.178;21.176;2023-04-03T11:44:33;1.90;;;1.00;;
76896;SDS011;65856;52.178;21.176;2023-04-03T11:47:04;1.80;;;0.70;;
76896;SDS011;65856;52.178;21.176;2023-04-03T11:49:56;1.70;;;0.80;;
76896;SDS011;65856;52.178;21.176;2023-04-03T11:53:00;1.10;;;0.70;;
76896;SDS011;65856;52.178;21.176;2023-04-03T11:56:26;1.50;;;0.80;;
76896;SDS011;65856;52.178;21.176;2023-04-03T11:59:16;2.40;;;0.90;;
76896;SDS011;65856;52.178;21.176;2023-04-03T12:01:51;1.30;;;0.90;;
76896;SDS011;65856;52.178;21.176;2023-04-03T12:04:22;3.10;;;1.20;;
76896;SDS011;65856;52.178;21.176;2023-04-03T12:10:01;1.80;;;1.00;;
76896;SDS011;65856;52.178;21.176;2023-04-03T12:12:43;3.30;;;0.90;;
76896;SDS011;65856;52.178;21.176;2023-04-03T12:15:47;2.50;;;0.90;;
76896;SDS011;65856;52.178;21.176;2023-04-03T12:18:56;1.40;;;1.00;;
76896;SDS011;65856;52.178;21.176;2023-04-03T12:24:43;3.30;;;0.90;;
76896;SDS011;65856;52.178;21.176;2023-04-03T12:27:26;2.10;;;1.20;;
76896;SDS011;65856;52.178;21.176;2023-04-03T12:30:01;1.70;;;0.90;;
76896;SDS011;65856;52.178;21.176;2023-04-03T12:32:48;1.50;;;0.90;;
76896;SDS011;65856;52.178;21.176;2023-04-03T12:35:28;2.00;;;0.80;;
76896;SDS011;65856;52.178;21.176;2023-04-03T12:38:27;2.20;;;0.90;;
76896;SDS011;65856;52.178;21.176;2023-04-03T12:41:18;3.10;;;0.90;;
76896;SDS011;65856;52.178;21.176;2023-04-03T12:44:05;4.20;;;1.00;;
76896;SDS011;65856;52.178;21.176;2023-04-03T12:46:49;1.90;;;0.90;;
76896;SDS011;65856;52.178;21.176;2023-04-03T12:49:33;1.80;;;1.00;;
76896;SDS011;65856;52.178;21.176;2023-04-03T12:52:05;1.60;;;0.70;;
76896;SDS011;65856;52.178;21.176;2023-04-03T12:54:46;1.90;;;1.00;;
76896;SDS011;65856;52.178;21.176;2023-04-03T12:57:18;2.20;;;1.10;;
76896;SDS011;65856;52.178;21.176;2023-04-03T12:59:48;1.50;;;0.90;;
76896;SDS011;65856;52.178;21.176;2023-04-03T13:02:23;1.90;;;0.90;;
76896;SDS011;65856;52.178;21.176;2023-04-03T13:04:55;2.10;;;0.70;;
76896;SDS011;65856;52.178;21.176;2023-04-03T13:07:27;2.80;;;0.90;;
76896;SDS011;65856;52.178;21.176;2023-04-03T13:10:03;1.30;;;0.60;;
76896;SDS011;65856;52.178;21.176;2023-04-03T13:15:18;1.20;;;0.80;;
76896;SDS011;65856;52.178;21.176;2023-04-03T13:17:49;2.10;;;0.90;;
76896;SDS011;65856;52.178;21.176;2023-04-03T13:20:22;0.90;;;0.70;;
76896;SDS011;65856;52.178;21.176;2023-04-03T13:22:57;2.30;;;0.90;;
76896;SDS011;65856;52.178;21.176;2023-04-03T13:25:31;1.40;;;0.80;;
76896;SDS011;65856;52.178;21.176;2023-04-03T13:28:04;2.00;;;1.00;;
76896;SDS011;65856;52.178;21.176;2023-04-03T13:30:38;2.40;;;0.90;;
76896;SDS011;65856;52.178;21.176;2023-04-03T13:33:20;1.70;;;0.80;;
76896;SDS011;65856;52.178;21.176;2023-04-03T13:35:55;2.70;;;1.00;;
76896;SDS011;65856;52.178;21.176;2023-04-03T13:38:28;3.50;;;1.10;;
76896;SDS011;65856;52.178;21.176;2023-04-03T13:41:01;2.70;;;1.00;;
76896;SDS011;65856;52.178;21.176;2023-04-03T13:43:33;2.40;;;1.10;;
76896;SDS011;65856;52.178;21.176;2023-04-03T13:46:20;1.20;;;1.00;;
76896;SDS011;65856;52.178;21.176;2023-04-03T13:48:53;1.60;;;0.90;;
76896;SDS011;65856;52.178;21.176;2023-04-03T13:51:24;1.90;;;1.00;;
76896;SDS011;65856;52.178;21.176;2023-04-03T13:53:57;1.30;;;0.80;;
76896;SDS011;65856;52.178;21.176;2023-04-03T13:56:31;2.40;;;1.10;;
76896;SDS011;65856;52.178;21.176;2023-04-03T13:59:06;3.80;;;1.20;;
76896;SDS011;65856;52.178;21.176;2023-04-03T14:01:51;2.20;;;1.10;;
76896;SDS011;65856;52.178;21.176;2023-04-03T14:04:23;1.40;;;0.90;;
76896;SDS011;65856;52.178;21.176;2023-04-03T14:06:55;2.10;;;1.10;;
76896;SDS011;65856;52.178;21.176;2023-04-03T14:09:24;1.40;;;0.70;;
76896;SDS011;65856;52.178;21.176;2023-04-03T14:11:57;2.00;;;1.10;;
76896;SDS011;65856;52.178;21.176;2023-04-03T14:14:30;1.90;;;0.90;;
76896;SDS011;65856;52.178;21.176;2023-04-03T14:17:03;1.90;;;1.00;;
76896;SDS011;65856;52.178;21.176;2023-04-03T14:19:40;3.50;;;1.10;;
76896;SDS011;65856;52.178;21.176;2023-04-03T14:22:15;2.60;;;1.30;;
76896;SDS011;65856;52.178;21.176;2023-04-03T14:24:45;1.50;;;1.00;;
76896;SDS011;65856;52.178;21.176;2023-04-03T14:27:18;1.40;;;0.80;;
76896;SDS011;65856;52.178;21.176;2023-04-03T14:29:49;4.20;;;1.30;;
76896;SDS011;65856;52.178;21.176;2023-04-03T14:32:20;2.80;;;1.20;;
76896;SDS011;65856;52.178;21.176;2023-04-03T14:34:49;3.90;;;1.10;;
76896;SDS011;65856;52.178;21.176;2023-04-03T14:37:21;2.20;;;1.20;;
76896;SDS011;65856;52.178;21.176;2023-04-03T14:39:51;4.70;;;1.80;;
76896;SDS011;65856;52.178;21.176;2023-04-03T14:42:22;1.60;;;1.00;;
76896;SDS011;65856;52.178;21.176;2023-04-03T14:44:52;2.20;;;1.10;;
76896;SDS011;65856;52.178;21.176;2023-04-03T14:47:24;1.60;;;1.10;;
76896;SDS011;65856;52.178;21.176;2023-04-03T14:49:54;1.20;;;0.80;;
76896;SDS011;65856;52.178;21.176;2023-04-03T14:52:26;7.90;;;1.10;;
76896;SDS011;65856;52.178;21.176;2023-04-03T14:54:56;3.90;;;1.10;;
76896;SDS011;65856;52.178;21.176;2023-04-03T14:57:26;1.80;;;1.00;;
76896;SDS011;65856;52.178;21.176;2023-04-03T14:59:55;1.80;;;1.00;;
76896;SDS011;65856;52.178;21.176;2023-04-03T15:02:27;1.30;;;1.00;;
76896;SDS011;65856;52.178;21.176;2023-04-03T15:04:57;1.80;;;1.10;;
76896;SDS011;65856;52.178;21.176;2023-04-03T15:07:28;2.00;;;1.00;;
76896;SDS011;65856;52.178;21.176;2023-04-03T15:10:00;1.80;;;1.00;;
76896;SDS011;65856;52.178;21.176;2023-04-03T15:12:33;2.80;;;1.30;;
76896;SDS011;65856;52.178;21.176;2023-04-03T15:15:01;3.30;;;1.30;;